Time;durP1;ratioP1;P1;durP2;ratioP2;P2;SDS_P1;SDS_P2;PMS_P1;PMS_P2;Temp;Humidity;BMP_temperature;BMP_pressure;BME280_temperature;BME280_humidity;BME280_pressure;Samples;Min_cycle;Max_cycle;Signal;HPM_P1;HPM_P2
2022/05/04 00:01:04;;;;;;;4.18;2.95;;;20.40;51.10;;;;;;6340313;22;19998;-84
2022/05/04 00:03:30;;;;;;;5.10;3.10;;;20.40;51.10;;;;;;6340761;22;20011;-84
2022/05/04 00:05:56;;;;;;;6.40;2.85;;;20.40;51.20;;;;;;6341398;22;20002;-83
2022/05/04 00:08:22;;;;;;;4.15;2.88;;;20.40;51.40;;;;;;6312951;22;20010;-84
2022/05/04 00:10:47;;;;;;;4.68;3.00;;;20.40;51.50;;;;;;6341206;22;20329;-85
2022/05/04 00:13:13;;;;;;;5.15;3.15;;;20.30;51.60;;;;;;6341046;22;20443;-84
2022/05/04 00:15:38;;;;;;;6.38;2.97;;;20.30;51.40;;;;;;6341106;22;20006;-84
2022/05/04 00:18:04;;;;;;;4.57;3.15;;;20.20;51.70;;;;;;6313025;22;20007;-83
2022/05/04 00:20:30;;;;;;;3.38;2.80;;;20.20;51.90;;;;;;6340504;22;20425;-82
2022/05/04 00:22:55;;;;;;;6.65;3.38;;;20.20;52.00;;;;;;6313424;22;20037;-84
2022/05/04 00:25:21;;;;;;;4.22;2.70;;;20.20;52.10;;;;;;6341344;22;20397;-83
2022/05/04 00:27:47;;;;;;;7.60;2.88;;;20.20;52.10;;;;;;6340623;22;19995;-84
2022/05/04 00:30:13;;;;;;;6.40;3.35;;;20.20;52.20;;;;;;6341556;22;19994;-83
2022/05/04 00:32:39;;;;;;;4.40;3.10;;;20.20;52.30;;;;;;6340354;22;20007;-84
2022/05/04 00:35:05;;;;;;;4.75;3.47;;;20.20;52.20;;;;;;6312217;22;20006;-82
2022/05/04 00:37:31;;;;;;;3.78;3.10;;;20.20;52.20;;;;;;6339406;22;20009;-82
2022/05/04 00:39:57;;;;;;;6.40;3.30;;;20.20;52.20;;;;;;6340933;22;20007;-84
2022/05/04 00:42:23;;;;;;;4.75;3.47;;;20.20;52.10;;;;;;6341219;22;20076;-84
2022/05/04 00:44:49;;;;;;;4.05;3.25;;;20.10;51.90;;;;;;6313885;22;20447;-86
2022/05/04 00:47:16;;;;;;;4.90;3.38;;;20.10;51.70;;;;;;6341020;22;20013;-85
2022/05/04 00:49:46;;;;;;;6.20;3.60;;;20.10;51.80;;;;;;6340033;22;19999;-85
2022/05/04 00:52:13;;;;;;;5.10;3.63;;;20.10;51.70;;;;;;6312271;22;20355;-84
2022/05/04 00:54:42;;;;;;;5.05;3.60;;;20.10;51.60;;;;;;6312066;22;20312;-82
2022/05/04 00:57:09;;;;;;;3.42;3.10;;;20.10;51.60;;;;;;6338813;22;20074;-83
2022/05/04 00:59:37;;;;;;;4.55;3.10;;;20.10;51.80;;;;;;6312417;22;20003;-83
2022/05/04 01:02:03;;;;;;;4.93;2.90;;;20.10;52.10;;;;;;6339360;22;19999;-83
2022/05/04 01:04:29;;;;;;;4.60;2.97;;;20.00;52.20;;;;;;6340137;22;19999;-83
2022/05/04 01:06:55;;;;;;;5.60;3.83;;;20.00;52.20;;;;;;6339868;22;20029;-83
2022/05/04 01:09:21;;;;;;;4.25;3.28;;;20.00;52.20;;;;;;6340555;22;20003;-84
2022/05/04 01:11:47;;;;;;;5.57;3.40;;;20.00;52.40;;;;;;6340414;22;19999;-82
2022/05/04 01:14:16;;;;;;;4.75;3.65;;;20.00;52.50;;;;;;6340039;22;20006;-83
2022/05/04 01:16:45;;;;;;;4.07;3.08;;;20.00;52.50;;;;;;6340448;22;20078;-82
2022/05/04 01:19:11;;;;;;;4.07;3.42;;;19.90;52.50;;;;;;6340446;22;20022;-82
2022/05/04 01:21:38;;;;;;;6.88;3.90;;;19.90;52.40;;;;;;6339639;22;20003;-82
2022/05/04 01:24:04;;;;;;;5.38;3.28;;;19.90;52.40;;;;;;6339770;22;20115;-81
2022/05/04 01:26:29;;;;;;;4.53;3.67;;;19.90;52.60;;;;;;6312131;22;20002;-81
2022/05/04 01:28:56;;;;;;;5.35;3.58;;;19.90;52.70;;;;;;6339791;22;19999;-85
2022/05/04 01:31:22;;;;;;;4.88;3.88;;;19.90;52.60;;;;;;6312500;22;20152;-82
2022/05/04 01:33:48;;;;;;;7.53;3.58;;;19.90;52.70;;;;;;6340362;22;19999;-83
2022/05/04 01:36:13;;;;;;;4.82;3.53;;;19.90;53.00;;;;;;6339801;22;20024;-83
2022/05/04 01:38:39;;;;;;;5.53;3.30;;;19.80;52.90;;;;;;6312358;22;20048;-83
2022/05/04 01:42:02;;;;;;;5.28;3.85;;;19.80;52.80;;;;;;6340303;22;20002;-84
2022/05/04 01:43:50;;;;;;;4.03;2.80;;;19.80;52.60;;;;;;6339699;22;20011;-83
2022/05/04 01:46:16;;;;;;;3.83;3.00;;;19.80;52.50;;;;;;6339434;22;20440;-83
2022/05/04 01:48:41;;;;;;;4.63;3.38;;;19.80;52.40;;;;;;6340163;22;20074;-83
2022/05/04 01:51:07;;;;;;;3.70;3.30;;;19.80;52.50;;;;;;6339599;22;20003;-83
2022/05/04 01:53:33;;;;;;;4.50;3.05;;;19.80;52.50;;;;;;6339538;22;20003;-83
2022/05/04 01:56:01;;;;;;;7.50;3.47;;;19.70;52.50;;;;;;6339960;22;19995;-85
2022/05/04 01:58:27;;;;;;;6.13;3.42;;;19.70;52.50;;;;;;6339877;22;20401;-85
2022/05/04 02:00:53;;;;;;;5.40;3.50;;;19.70;52.70;;;;;;6340099;22;20052;-84
2022/05/04 02:03:18;;;;;;;3.85;3.05;;;19.70;52.90;;;;;;6312329;22;20037;-84
2022/05/04 02:05:44;;;;;;;5.32;2.80;;;19.70;53.00;;;;;;6340296;22;19995;-84
2022/05/04 02:08:10;;;;;;;5.45;3.05;;;19.70;53.00;;;;;;6340557;22;20002;-84
2022/05/04 02:10:35;;;;;;;5.18;3.10;;;19.70;52.90;;;;;;6340681;22;20007;-84
2022/05/04 02:13:01;;;;;;;3.97;3.30;;;19.60;52.90;;;;;;6340312;22;19998;-85
2022/05/04 02:15:27;;;;;;;4.68;3.28;;;19.60;53.20;;;;;;6312305;22;20057;-84
2022/05/04 02:17:52;;;;;;;6.22;3.33;;;19.60;53.30;;;;;;6339107;22;20006;-81
2022/05/04 02:20:18;;;;;;;4.93;3.13;;;19.60;53.40;;;;;;6339032;22;20027;-81
2022/05/04 02:22:44;;;;;;;4.22;2.97;;;19.60;53.30;;;;;;6339444;22;20011;-82
2022/05/04 02:25:09;;;;;;;7.03;3.20;;;19.50;53.50;;;;;;6311376;22;20395;-83
2022/05/04 02:27:35;;;;;;;7.57;3.38;;;19.60;53.90;;;;;;6311330;22;20006;-81
2022/05/04 02:30:01;;;;;;;4.72;3.38;;;19.50;53.90;;;;;;6339663;22;20002;-84
2022/05/04 02:32:26;;;;;;;7.40;3.50;;;19.50;53.90;;;;;;6340251;22;19999;-84
2022/05/04 02:40:20;;;;;;;4.28;2.95;;;19.40;54.40;;;;;;6339153;22;20066;-83
2022/05/04 02:42:46;;;;;;;4.15;3.05;;;19.40;54.50;;;;;;6339231;22;20359;-84
2022/05/04 02:45:12;;;;;;;3.78;3.20;;;19.40;55.60;;;;;;6338396;22;20026;-82
2022/05/04 02:47:39;;;;;;;3.95;2.90;;;19.30;55.10;;;;;;6338730;22;20416;-82
2022/05/04 02:50:06;;;;;;;6.50;4.00;;;19.20;56.30;;;;;;6338530;22;20003;-82
2022/05/04 02:52:32;;;;;;;3.63;3.25;;;19.20;56.00;;;;;;6339764;22;20063;-85
2022/05/04 02:54:57;;;;;;;5.00;3.38;;;19.10;57.30;;;;;;6312165;22;20037;-84
2022/05/04 02:57:23;;;;;;;4.85;3.03;;;19.00;56.90;;;;;;6340087;22;20038;-84
2022/05/04 02:59:49;;;;;;;6.53;3.45;;;18.90;56.70;;;;;;6339549;22;19999;-85
2022/05/04 03:02:29;;;;;;;5.35;3.80;;;18.80;57.30;;;;;;6312075;22;20037;-84
2022/05/04 03:04:59;;;;;;;5.10;3.30;;;18.70;59.00;;;;;;6339467;22;20056;-84
2022/05/04 03:07:26;;;;;;;5.07;3.53;;;18.60;58.60;;;;;;6339825;22;19999;-84
2022/05/04 03:09:52;;;;;;;4.53;3.28;;;18.60;57.90;;;;;;6340224;22;20033;-84
2022/05/04 03:12:18;;;;;;;5.55;3.85;;;18.60;57.90;;;;;;6340113;22;20007;-83
2022/05/04 03:14:44;;;;;;;6.03;3.83;;;18.50;57.90;;;;;;6339322;22;20081;-84
2022/05/04 03:17:10;;;;;;;4.60;4.13;;;18.50;58.50;;;;;;6339347;22;20037;-84
2022/05/04 03:19:35;;;;;;;5.60;4.30;;;18.50;58.10;;;;;;6312687;22;19999;-80
2022/05/04 03:22:01;;;;;;;5.53;4.22;;;18.50;59.10;;;;;;6341187;22;20006;-83
2022/05/04 03:24:27;;;;;;;7.70;4.15;;;18.30;59.50;;;;;;6341324;22;19995;-83
2022/05/04 03:26:52;;;;;;;8.63;5.13;;;18.20;60.10;;;;;;6341422;22;20007;-83
2022/05/04 03:29:18;;;;;;;5.38;4.45;;;18.00;60.80;;;;;;6341498;22;20009;-83
2022/05/04 03:31:44;;;;;;;5.15;4.03;;;17.90;60.80;;;;;;6340716;22;20006;-83
2022/05/04 03:34:09;;;;;;;7.57;4.22;;;18.00;59.60;;;;;;6341517;22;20079;-84
2022/05/04 03:36:38;;;;;;;4.90;4.10;;;18.00;60.50;;;;;;6340955;22;20003;-83
2022/05/04 03:39:04;;;;;;;5.72;4.25;;;17.90;61.00;;;;;;6341359;22;19995;-83
2022/05/04 03:41:31;;;;;;;6.30;4.30;;;17.80;61.40;;;;;;6340665;22;20420;-83
2022/05/04 03:43:57;;;;;;;6.95;4.13;;;17.90;61.10;;;;;;6313257;22;20003;-82
2022/05/04 03:46:27;;;;;;;6.75;4.47;;;17.70;60.60;;;;;;6340533;22;20898;-84
2022/05/04 03:49:01;;;;;;;5.38;3.92;;;17.70;62.00;;;;;;6340721;22;20440;-82
2022/05/04 03:51:28;;;;;;;6.50;4.93;;;17.70;61.80;;;;;;6340008;22;20045;-82
2022/05/04 03:53:54;;;;;;;5.70;4.05;;;17.60;62.00;;;;;;6341237;22;20005;-83
2022/05/04 03:56:20;;;;;;;9.10;4.82;;;17.70;61.30;;;;;;6340098;22;20052;-87
2022/05/04 03:58:46;;;;;;;5.43;3.85;;;17.70;62.30;;;;;;6340131;22;20021;-87
2022/05/04 04:01:17;;;;;;;5.18;4.15;;;17.70;61.20;;;;;;6340411;22;20002;-86
2022/05/04 04:03:42;;;;;;;;;;;17.70;61.80;;;;;;6312487;22;20018;-86
2022/05/04 04:06:08;;;;;;;6.75;4.20;;;17.80;61.70;;;;;;6339969;22;20229;-87
2022/05/04 04:08:34;;;;;;;6.38;4.78;;;17.80;61.00;;;;;;6338747;22;19999;-85
2022/05/04 04:10:59;;;;;;;5.68;4.43;;;17.80;62.70;;;;;;6337906;22;20009;-86
2022/05/04 04:13:26;;;;;;;6.90;5.00;;;17.80;61.70;;;;;;6338283;22;20014;-85
2022/05/04 04:15:51;;;;;;;7.55;4.97;;;17.80;61.40;;;;;;6337632;22;20006;-85
2022/05/04 04:18:22;;;;;;;7.25;5.13;;;17.90;61.60;;;;;;6337896;22;20003;-84
2022/05/04 04:23:33;;;;;;;5.45;4.78;;;18.10;61.40;;;;;;6337915;22;20014;-82
2022/05/04 04:25:58;;;;;;;5.65;4.45;;;18.20;61.30;;;;;;6335725;22;20073;-83
2022/05/04 04:28:25;;;;;;;8.73;4.90;;;18.20;61.40;;;;;;6338750;22;20033;-83
2022/05/04 04:30:51;;;;;;;6.05;4.90;;;18.20;61.30;;;;;;6336672;22;20003;-83
2022/05/04 04:33:17;;;;;;;5.38;4.88;;;18.20;61.10;;;;;;6337742;22;20489;-84
2022/05/04 04:35:43;;;;;;;6.78;4.45;;;18.10;62.30;;;;;;6311417;22;20003;-83
2022/05/04 04:38:08;;;;;;;9.05;5.10;;;18.00;61.80;;;;;;6339634;22;20051;-83
2022/05/04 04:40:34;;;;;;;6.63;5.07;;;17.90;62.60;;;;;;6338404;22;20309;-84
2022/05/04 04:43:03;;;;;;;6.50;4.65;;;17.70;63.20;;;;;;6338678;22;19995;-83
2022/05/04 04:45:30;;;;;;;7.55;5.43;;;17.60;63.60;;;;;;6337963;22;20102;-84
2022/05/04 04:47:56;;;;;;;8.23;4.55;;;17.60;62.80;;;;;;6338614;22;20002;-83
2022/05/04 04:50:23;;;;;;;9.07;4.60;;;17.70;62.40;;;;;;6338209;22;19998;-83
2022/05/04 04:52:49;;;;;;;7.00;5.82;;;17.70;62.50;;;;;;6309447;22;20416;-83
2022/05/04 04:55:15;;;;;;;13.27;6.97;;;17.50;63.50;;;;;;6337683;22;19998;-84
2022/05/04 04:57:40;;;;;;;7.43;4.57;;;17.20;64.20;;;;;;6309697;22;20003;-84
2022/05/04 05:00:07;;;;;;;8.38;5.57;;;17.20;63.80;;;;;;6310445;22;20013;-85
2022/05/04 05:02:35;;;;;;;6.05;5.22;;;17.10;65.20;;;;;;6288064;22;1133022;-84
2022/05/04 05:05:02;;;;;;;5.95;4.68;;;17.20;64.60;;;;;;6340198;22;20388;-80
2022/05/04 05:07:28;;;;;;;7.13;5.68;;;17.30;63.90;;;;;;6310501;22;20006;-85
2022/05/04 05:09:54;;;;;;;8.50;7.40;;;17.20;65.00;;;;;;6339257;22;20033;-84
2022/05/04 05:12:21;;;;;;;7.70;6.45;;;17.00;65.60;;;;;;6339203;22;20003;-85
2022/05/04 05:17:32;;;;;;;6.28;5.65;;;16.70;67.10;;;;;;6341290;22;20013;-84
2022/05/04 05:19:58;;;;;;;7.22;5.68;;;16.70;67.50;;;;;;6340728;22;20033;-84
2022/05/04 05:22:24;;;;;;;9.65;5.50;;;16.70;67.20;;;;;;6313258;22;19999;-84
2022/05/04 05:24:49;;;;;;;9.98;7.28;;;16.80;66.70;;;;;;6313918;22;20015;-84
2022/05/04 05:27:15;;;;;;;11.70;8.00;;;16.80;66.50;;;;;;6341325;22;20006;-83
2022/05/04 05:29:41;;;;;;;6.47;5.38;;;16.60;67.00;;;;;;6312322;22;20007;-83
2022/05/04 05:32:07;;;;;;;5.90;4.63;;;16.70;67.30;;;;;;6341510;22;20028;-85
2022/05/04 05:34:34;;;;;;;5.80;5.20;;;16.90;66.20;;;;;;6340063;22;20417;-80
2022/05/04 05:37:00;;;;;;;6.38;5.20;;;17.00;66.30;;;;;;6311785;22;20013;-80
2022/05/04 05:39:26;;;;;;;9.68;5.90;;;17.30;65.10;;;;;;6339083;22;20002;-79
2022/05/04 05:41:52;;;;;;;9.15;6.85;;;17.40;65.30;;;;;;6338104;22;19999;-79
2022/05/04 05:44:18;;;;;;;7.05;6.15;;;17.30;65.40;;;;;;6338806;22;20010;-79
2022/05/04 05:46:43;;;;;;;17.70;6.82;;;17.20;65.80;;;;;;6338726;22;20023;-80
2022/05/04 05:49:09;;;;;;;7.25;5.95;;;17.00;66.40;;;;;;6339126;22;20076;-80
2022/05/04 05:51:35;;;;;;;44.70;6.40;;;17.00;66.80;;;;;;6339078;22;20002;-79
2022/05/04 05:54:00;;;;;;;8.77;6.20;;;17.20;66.80;;;;;;6339288;22;20417;-81
2022/05/04 05:56:26;;;;;;;10.32;4.75;;;17.30;66.40;;;;;;6311552;22;20413;-81
2022/05/04 05:58:52;;;;;;;6.68;5.05;;;17.50;66.00;;;;;;6339185;22;20003;-80
2022/05/04 06:01:17;;;;;;;4.57;4.18;;;17.70;65.40;;;;;;6338346;22;20127;-81
2022/05/04 06:03:43;;;;;;;7.10;6.05;;;17.80;65.30;;;;;;6336965;22;20444;-78
2022/05/04 06:06:09;;;;;;;7.22;5.13;;;17.80;65.30;;;;;;6337186;22;19995;-79
2022/05/04 06:08:36;;;;;;;6.78;5.00;;;17.70;65.10;;;;;;6337803;22;20003;-79
2022/05/04 06:11:02;;;;;;;6.95;5.85;;;17.80;64.90;;;;;;6338139;22;20003;-74
2022/05/04 06:13:28;;;;;;;10.65;6.15;;;17.80;65.00;;;;;;6336943;22;20006;-74
2022/05/04 06:15:54;;;;;;;7.30;6.00;;;17.70;65.70;;;;;;6336751;22;20010;-74
2022/05/04 06:18:19;;;;;;;7.70;4.78;;;17.70;65.70;;;;;;6309603;22;20010;-74
2022/05/04 06:20:45;;;;;;;5.93;5.05;;;17.80;65.10;;;;;;6337893;22;19995;-75
2022/05/04 06:23:10;;;;;;;6.85;5.38;;;17.90;64.80;;;;;;6338849;22;20003;-74
2022/05/04 06:25:36;;;;;;;6.63;5.15;;;18.00;64.90;;;;;;6338689;22;19995;-75
2022/05/04 06:28:03;;;;;;;12.30;6.88;;;18.10;65.00;;;;;;6336718;22;20405;-75
2022/05/04 06:35:59;;;;;;;5.32;4.75;;;18.10;65.30;;;;;;6337808;22;20045;-76
2022/05/04 06:38:24;;;;;;;6.97;4.90;;;18.20;64.60;;;;;;6306910;22;20358;-76
2022/05/04 06:40:50;;;;;;;6.43;5.15;;;18.30;64.70;;;;;;6337373;22;20005;-76
2022/05/04 06:43:16;;;;;;;6.20;4.78;;;18.40;64.60;;;;;;6310526;22;20026;-76
2022/05/04 06:45:42;;;;;;;6.80;5.10;;;18.50;65.00;;;;;;6338187;22;19999;-76
2022/05/04 06:48:08;;;;;;;5.20;4.55;;;18.60;64.60;;;;;;6310466;22;20086;-76
2022/05/04 06:50:34;;;;;;;6.35;4.93;;;18.70;63.80;;;;;;6335554;22;20038;-76
2022/05/04 06:52:59;;;;;;;6.50;5.70;;;18.70;63.50;;;;;;6338069;22;20003;-76
2022/05/04 06:55:25;;;;;;;7.07;5.65;;;18.90;63.30;;;;;;6310318;22;20094;-77
2022/05/04 06:57:51;;;;;;;9.02;5.45;;;19.00;63.20;;;;;;6338313;22;20030;-77
2022/05/04 07:00:17;;;;;;;6.90;5.50;;;19.00;63.30;;;;;;6309895;22;19999;-76
2022/05/04 07:02:42;;;;;;;5.82;5.10;;;19.00;63.50;;;;;;6337613;22;20023;-77
2022/05/04 07:05:08;;;;;;;8.43;5.10;;;19.10;63.30;;;;;;6338477;22;20393;-76
2022/05/04 07:07:34;;;;;;;9.77;6.22;;;19.20;63.70;;;;;;6337115;22;20031;-76
2022/05/04 07:10:00;;;;;;;9.95;5.53;;;19.20;63.30;;;;;;6337661;22;20123;-76
2022/05/04 07:12:26;;;;;;;7.80;5.25;;;19.30;63.20;;;;;;6337083;22;20078;-77
2022/05/04 07:14:55;;;;;;;7.18;5.03;;;19.40;63.20;;;;;;6338271;22;20026;-76
2022/05/04 07:17:22;;;;;;;6.55;5.25;;;19.50;63.10;;;;;;6338036;22;20064;-76
2022/05/04 07:19:48;;;;;;;8.85;5.07;;;19.60;62.80;;;;;;6338047;22;20452;-77
2022/05/04 07:22:13;;;;;;;7.90;5.28;;;19.70;62.40;;;;;;6338560;22;19999;-77
2022/05/04 07:24:39;;;;;;;8.45;5.45;;;19.80;62.30;;;;;;6309792;22;19999;-77
2022/05/04 07:27:08;;;;;;;6.97;6.25;;;19.90;62.20;;;;;;6337989;22;20009;-77
2022/05/04 07:29:34;;;;;;;7.45;5.50;;;20.00;61.90;;;;;;6310254;22;20018;-77
2022/05/04 07:32:00;;;;;;;8.95;5.70;;;20.00;61.80;;;;;;6338831;22;20002;-77
2022/05/04 07:34:26;;;;;;;9.68;5.45;;;20.00;61.50;;;;;;6310748;22;20003;-76
2022/05/04 07:36:52;;;;;;;10.00;5.20;;;20.10;61.40;;;;;;6337716;22;20126;-76
2022/05/04 07:44:47;;;;;;;6.78;5.30;;;20.30;61.10;;;;;;6338195;22;20010;-76
2022/05/04 07:47:13;;;;;;;7.32;4.95;;;20.40;60.90;;;;;;6337977;22;20086;-76
2022/05/04 07:49:39;;;;;;;6.45;5.53;;;20.50;60.90;;;;;;6337744;22;20014;-77
2022/05/04 07:52:05;;;;;;;5.60;5.00;;;20.60;61.00;;;;;;6337612;22;19999;-77
2022/05/04 07:54:31;;;;;;;6.60;5.10;;;20.70;61.00;;;;;;6336564;22;20006;-76
2022/05/04 07:56:57;;;;;;;7.22;5.85;;;20.80;60.60;;;;;;6338148;22;20003;-76
2022/05/04 07:59:22;;;;;;;5.95;5.35;;;20.90;59.80;;;;;;6337920;22;19995;-76
2022/05/04 08:04:34;;;;;;;6.55;5.28;;;21.00;60.00;;;;;;6338476;22;20054;-76
2022/05/04 08:07:00;;;;;;;7.47;5.28;;;21.00;60.00;;;;;;6339486;22;20425;-76
2022/05/04 08:09:26;;;;;;;6.13;4.50;;;21.10;60.00;;;;;;6339914;22;20080;-76
2022/05/04 08:11:52;;;;;;;8.38;5.88;;;21.10;60.20;;;;;;6338458;22;20031;-76
2022/05/04 08:14:18;;;;;;;8.75;5.90;;;21.30;60.30;;;;;;6338735;22;20463;-76
2022/05/04 08:16:44;;;;;;;6.72;5.03;;;21.40;60.30;;;;;;6338576;22;19999;-76
2022/05/04 08:19:10;;;;;;;8.60;5.82;;;21.50;60.90;;;;;;6338491;22;20049;-76
2022/05/04 08:21:38;;;;;;;9.38;5.82;;;21.50;58.90;;;;;;6338284;22;20338;-75
2022/05/04 08:24:04;;;;;;;4.72;4.05;;;21.60;59.20;;;;;;6338561;22;20546;-76
2022/05/04 08:26:30;;;;;;;8.85;4.80;;;21.60;59.00;;;;;;6337251;22;20002;-76
2022/05/04 08:28:56;;;;;;;5.95;4.57;;;21.70;59.70;;;;;;6338583;22;20445;-76
2022/05/04 08:31:22;;;;;;;8.27;4.93;;;21.80;60.00;;;;;;6338100;22;20461;-76
2022/05/04 08:33:50;;;;;;;7.95;4.85;;;22.00;59.00;;;;;;6338354;22;20010;-76
2022/05/04 08:36:17;;;;;;;5.47;4.43;;;22.00;58.10;;;;;;6338364;22;20120;-76
2022/05/04 08:38:43;;;;;;;7.22;4.50;;;22.10;58.00;;;;;;6337918;22;20490;-76
2022/05/04 08:41:09;;;;;;;6.00;4.43;;;22.20;57.70;;;;;;6338127;22;20008;-76
2022/05/04 08:43:35;;;;;;;5.70;4.65;;;22.20;57.80;;;;;;6338135;22;20108;-76
2022/05/04 08:46:03;;;;;;;8.48;5.65;;;22.40;57.80;;;;;;6338480;22;20006;-76
2022/05/04 08:48:33;;;;;;;7.07;5.22;;;22.50;56.80;;;;;;6339078;22;20009;-76
2022/05/04 08:51:04;;;;;;;7.70;5.57;;;22.60;56.40;;;;;;6338871;22;20090;-76
2022/05/04 08:53:31;;;;;;;5.65;4.63;;;22.70;57.20;;;;;;6339724;22;20009;-75
2022/05/04 08:55:57;;;;;;;6.90;5.22;;;22.80;57.60;;;;;;6311812;22;20336;-76
2022/05/04 08:58:23;;;;;;;7.57;5.32;;;23.00;57.10;;;;;;6339564;22;20027;-76
2022/05/04 09:00:48;;;;;;;9.15;5.78;;;23.10;56.70;;;;;;6310572;22;20475;-76
2022/05/04 09:03:14;;;;;;;8.40;5.15;;;23.30;55.90;;;;;;6310218;22;20011;-76
2022/05/04 09:05:45;;;;;;;7.80;5.05;;;23.40;55.90;;;;;;6337909;22;20077;-76
2022/05/04 09:08:10;;;;;;;6.97;4.95;;;23.50;56.40;;;;;;6337993;22;20009;-75
2022/05/04 09:10:39;;;;;;;6.38;5.32;;;23.60;56.90;;;;;;6338147;22;20002;-76
2022/05/04 09:13:05;;;;;;;6.40;4.57;;;23.80;56.60;;;;;;6337405;22;20069;-76
2022/05/04 09:15:37;;;;;;;5.18;4.00;;;23.80;56.70;;;;;;6338140;22;20056;-75
2022/05/04 09:18:06;;;;;;;6.63;4.80;;;23.90;56.90;;;;;;6337634;22;20056;-76
2022/05/04 09:20:53;;;;;;;4.85;4.30;;;24.10;57.00;;;;;;6338697;22;19995;-75
2022/05/04 09:23:30;;;;;;;7.53;6.53;;;24.10;57.30;;;;;;6338632;22;20429;-76
2022/05/04 09:26:02;;;;;;;6.20;4.97;;;24.30;56.10;;;;;;6311181;22;20363;-77
2022/05/04 09:28:29;;;;;;;7.00;4.82;;;24.40;56.40;;;;;;6338878;22;20039;-77
2022/05/04 09:31:05;;;;;;;7.03;5.15;;;24.40;55.40;;;;;;6338980;22;20074;-76
2022/05/04 09:33:35;;;;;;;9.57;6.63;;;24.40;55.30;;;;;;6338945;22;20306;-76
2022/05/04 09:36:05;;;;;;;6.57;5.00;;;24.60;54.30;;;;;;6339155;22;20064;-76
2022/05/04 09:47:21;;;;;;;7.53;4.95;;;25.00;54.10;;;;;;6213544;23;20023;-77
2022/05/04 09:49:48;;;;;;;5.97;4.32;;;25.10;53.60;;;;;;6296376;22;20036;-78
2022/05/04 09:52:16;;;;;;;6.43;4.53;;;25.10;53.70;;;;;;6339145;22;20009;-77
2022/05/04 09:54:44;;;;;;;8.75;5.10;;;25.20;53.40;;;;;;6336618;22;19998;-77
2022/05/04 09:57:10;;;;;;;7.50;4.07;;;25.30;53.00;;;;;;6338923;22;20114;-77
2022/05/04 09:59:36;;;;;;;9.63;5.70;;;25.40;52.40;;;;;;6338898;22;20360;-77
2022/05/04 10:02:04;;;;;;;8.07;4.82;;;25.50;51.90;;;;;;6338226;22;20018;-77
2022/05/04 10:04:35;;;;;;;8.18;4.97;;;25.60;51.20;;;;;;6339190;22;20053;-77
2022/05/04 10:07:03;;;;;;;12.50;5.20;;;25.70;51.00;;;;;;6338931;22;19999;-77
2022/05/04 10:09:29;;;;;;;7.05;5.32;;;25.70;50.50;;;;;;6338726;22;20324;-77
2022/05/04 10:11:57;;;;;;;8.07;5.07;;;25.70;50.10;;;;;;6337926;22;20002;-77
2022/05/04 10:14:27;;;;;;;9.60;5.28;;;25.70;49.40;;;;;;6337011;22;20081;-77
2022/05/04 10:17:18;;;;;;;10.90;6.10;;;25.80;49.20;;;;;;6338084;22;19998;-77
2022/05/04 10:20:05;;;;;;;;;;;25.80;49.20;;;;;;6338509;22;20070;-80
2022/05/04 10:22:36;;;;;;;10.75;6.05;;;25.90;48.60;;;;;;6308151;22;19903;-77
2022/05/04 10:25:04;;;;;;;10.40;5.78;;;25.90;48.70;;;;;;6309753;22;20003;-76
2022/05/04 10:27:30;;;;;;;6.72;5.18;;;25.90;48.70;;;;;;6336914;22;20436;-76
2022/05/04 10:32:46;;;;;;;6.07;5.25;;;26.00;48.80;;;;;;6338256;22;20340;-77
2022/05/04 10:35:21;;;;;;;5.80;4.75;;;26.00;48.50;;;;;;6337613;22;19995;-79
2022/05/04 10:37:57;;;;;;;6.97;4.88;;;26.10;48.30;;;;;;6338336;22;20010;-79
2022/05/04 10:40:27;;;;;;;12.52;5.40;;;26.20;47.90;;;;;;6338216;22;20005;-78
2022/05/04 10:43:08;;;;;;;5.25;4.55;;;26.40;48.00;;;;;;6339044;22;20040;-78
2022/05/04 10:45:40;;;;;;;5.75;5.10;;;26.60;47.70;;;;;;6339098;22;19995;-78
2022/05/04 10:48:22;;;;;;;7.20;4.32;;;26.70;47.30;;;;;;6338868;22;20013;-78
2022/05/04 10:51:00;;;;;;;5.50;3.58;;;26.90;47.50;;;;;;6310749;22;20002;-78
2022/05/04 10:53:25;;;;;;;4.88;3.78;;;27.00;47.60;;;;;;6336534;22;20013;-79
2022/05/04 10:56:01;;;;;;;4.07;3.53;;;27.20;47.30;;;;;;6337521;22;20006;-80
2022/05/04 10:58:34;;;;;;;6.38;3.70;;;27.30;45.40;;;;;;6337668;22;20006;-80
2022/05/04 11:01:09;;;;;;;5.50;3.10;;;27.30;45.20;;;;;;6337879;22;20007;-79
2022/05/04 11:03:36;;;;;;;6.75;3.97;;;27.40;45.30;;;;;;6337397;22;20044;-79
2022/05/04 11:06:09;;;;;;;5.70;3.58;;;27.50;44.30;;;;;;6310108;22;20450;-78
2022/05/04 11:08:36;;;;;;;5.15;3.30;;;27.50;44.00;;;;;;6337368;22;19998;-78
2022/05/04 11:11:03;;;;;;;5.50;2.78;;;27.60;43.00;;;;;;6337891;22;20336;-79
2022/05/04 11:13:33;;;;;;;3.50;2.63;;;27.70;42.00;;;;;;6310310;22;20006;-79
2022/05/04 11:16:00;;;;;;;3.10;2.55;;;27.80;41.80;;;;;;6337344;22;20011;-78
2022/05/04 11:18:27;;;;;;;3.60;2.65;;;27.90;41.10;;;;;;6336348;22;20090;-78
2022/05/04 11:20:54;;;;;;;5.13;2.35;;;28.00;38.50;;;;;;6307741;22;20014;-76
2022/05/04 11:23:27;;;;;;;5.18;2.47;;;28.00;38.30;;;;;;6334869;22;20037;-76
2022/05/04 11:25:52;;;;;;;3.40;2.38;;;28.20;37.40;;;;;;6307365;22;20007;-76
2022/05/04 11:28:24;;;;;;;2.25;2.05;;;28.40;37.00;;;;;;6337009;22;20023;-76
2022/05/04 11:30:54;;;;;;;2.15;1.95;;;28.80;32.70;;;;;;6336327;22;20013;-76
2022/05/04 11:33:21;;;;;;;3.00;2.17;;;29.20;35.60;;;;;;6336820;22;20052;-76
2022/05/04 11:35:54;;;;;;;3.35;2.20;;;29.80;34.60;;;;;;6336816;22;20006;-77
2022/05/04 11:38:21;;;;;;;2.10;1.88;;;30.30;34.30;;;;;;6336768;22;20117;-76
2022/05/04 11:40:48;;;;;;;6.15;2.35;;;30.70;33.60;;;;;;6336996;22;20038;-76
2022/05/04 11:43:27;;;;;;;2.33;2.13;;;31.10;32.90;;;;;;6338074;22;19999;-76
2022/05/04 11:45:57;;;;;;;2.65;1.85;;;31.50;30.30;;;;;;6338936;22;20124;-76
2022/05/04 11:48:25;;;;;;;4.00;2.13;;;31.90;30.80;;;;;;6338232;22;20413;-76
2022/05/04 11:50:52;;;;;;;3.00;2.13;;;32.10;30.40;;;;;;6337567;22;20078;-76
2022/05/04 11:53:18;;;;;;;2.83;2.00;;;32.30;30.70;;;;;;6310865;22;20498;-76
2022/05/04 11:55:43;;;;;;;3.05;2.17;;;32.50;29.30;;;;;;6338513;22;19999;-76
2022/05/04 11:58:11;;;;;;;3.72;1.90;;;32.60;28.70;;;;;;6337896;22;20044;-76
2022/05/04 12:00:38;;;;;;;2.30;1.90;;;32.70;29.20;;;;;;6337557;22;20026;-76
2022/05/04 12:03:07;;;;;;;3.00;1.92;;;32.80;28.50;;;;;;6339135;22;20006;-76
2022/05/04 12:05:35;;;;;;;4.70;3.42;;;32.70;29.00;;;;;;6338153;22;20286;-76
2022/05/04 12:08:04;;;;;;;40.05;6.00;;;32.80;28.90;;;;;;6338318;22;20152;-76
2022/05/04 12:10:30;;;;;;;;;;;32.90;27.50;;;;;;6338741;22;19994;-76
2022/05/04 12:12:58;;;;;;;6.20;3.40;;;32.90;28.70;;;;;;6338256;22;19903;-76
2022/05/04 12:15:27;;;;;;;4.50;2.45;;;33.00;29.00;;;;;;6338799;22;20005;-77
2022/05/04 12:18:01;;;;;;;2.70;2.47;;;33.20;28.60;;;;;;6338001;22;20080;-84
2022/05/04 12:20:27;;;;;;;8.20;2.78;;;33.40;27.00;;;;;;6338180;22;20003;-76
2022/05/04 12:22:54;;;;;;;5.45;2.70;;;33.60;27.60;;;;;;6308757;22;20363;-76
2022/05/04 12:25:24;;;;;;;4.00;2.58;;;33.60;26.70;;;;;;6310131;22;20052;-76
2022/05/04 12:27:54;;;;;;;3.40;2.33;;;33.80;27.00;;;;;;6337252;22;20329;-76
2022/05/04 12:33:11;;;;;;;1.95;1.73;;;33.50;26.30;;;;;;6337796;22;20069;-76
2022/05/04 12:35:46;;;;;;;2.95;2.00;;;33.60;26.60;;;;;;6310148;22;20017;-76
2022/05/04 12:38:16;;;;;;;4.30;2.53;;;33.70;26.70;;;;;;6338119;22;20055;-76
2022/05/04 12:40:43;;;;;;;3.95;2.33;;;33.90;26.50;;;;;;6338240;22;19995;-76
2022/05/04 12:43:08;;;;;;;3.17;2.55;;;34.10;26.50;;;;;;6337278;22;20005;-76
2022/05/04 12:45:36;;;;;;;2.78;2.00;;;34.20;26.60;;;;;;6336688;22;20069;-76
2022/05/04 12:48:06;;;;;;;2.55;2.10;;;34.20;26.00;;;;;;6335269;22;20014;-76
2022/05/04 12:50:33;;;;;;;2.92;2.50;;;34.20;25.70;;;;;;6309609;22;20409;-78
2022/05/04 12:52:59;;;;;;;3.05;1.98;;;34.40;25.60;;;;;;6338018;22;20432;-78
2022/05/04 12:58:10;;;;;;;4.55;2.38;;;34.70;24.50;;;;;;6336395;22;20114;-79
2022/05/04 13:00:36;;;;;;;2.47;2.20;;;34.80;25.40;;;;;;6337585;22;20074;-79
2022/05/04 13:03:04;;;;;;;7.25;3.00;;;34.50;25.50;;;;;;6337629;22;20030;-79
2022/05/04 13:05:30;;;;;;;2.33;1.90;;;34.40;25.20;;;;;;6309182;22;20325;-78
2022/05/04 13:07:56;;;;;;;4.22;2.38;;;34.50;24.70;;;;;;6336285;22;20003;-79
2022/05/04 13:10:21;;;;;;;3.90;2.70;;;34.30;25.70;;;;;;6337323;22;20099;-79
2022/05/04 13:12:47;;;;;;;3.10;2.75;;;34.20;25.40;;;;;;6337840;22;20038;-79
2022/05/04 13:15:13;;;;;;;3.75;2.63;;;33.80;26.00;;;;;;6337130;22;20002;-79
2022/05/04 13:17:39;;;;;;;2.72;2.15;;;33.50;25.90;;;;;;6337997;22;20379;-79
2022/05/04 13:20:05;;;;;;;10.93;3.72;;;33.40;26.20;;;;;;6338120;22;20461;-78
2022/05/04 13:22:31;;;;;;;4.82;3.50;;;33.30;26.60;;;;;;6338500;22;20075;-78
2022/05/04 13:24:59;;;;;;;3.45;3.15;;;33.30;27.30;;;;;;6336992;22;20129;-77
2022/05/04 13:27:25;;;;;;;4.45;2.70;;;33.30;27.50;;;;;;6309973;22;20009;-79
2022/05/04 13:29:50;;;;;;;2.70;2.50;;;33.50;28.00;;;;;;6336773;22;20010;-79